sensor_id;sensor_type;location;lat;lon;timestamp;pressure;altitude;pressure_sealevel;temperature
69704;BMP280;56967;43.538;-5.646;2022-12-07T00:01:34;101552.19;;;21.95
69704;BMP280;56967;43.538;-5.646;2022-12-07T00:04:01;101546.13;;;24.44
69704;BMP280;56967;43.538;-5.646;2022-12-07T00:06:42;101541.22;;;24.83
69704;BMP280;56967;43.538;-5.646;2022-12-07T00:09:13;101548.97;;;24.52
69704;BMP280;56967;43.538;-5.646;2022-12-07T00:11:39;101542.56;;;24.29
69704;BMP280;56967;43.538;-5.646;2022-12-07T00:14:09;101543.94;;;22.55
69704;BMP280;56967;43.538;-5.646;2022-12-07T00:16:35;101547.03;;;22.18
69704;BMP280;56967;43.538;-5.646;2022-12-07T00:19:02;101540.09;;;22.12
69704;BMP280;56967;43.538;-5.646;2022-12-07T00:21:30;101535.53;;;22.18
69704;BMP280;56967;43.538;-5.646;2022-12-07T00:23:56;101533.88;;;22.27
69704;BMP280;56967;43.538;-5.646;2022-12-07T00:26:33;101537.06;;;22.44
69704;BMP280;56967;43.538;-5.646;2022-12-07T00:29:02;101534.81;;;22.02
69704;BMP280;56967;43.538;-5.646;2022-12-07T00:31:32;101533.81;;;22.86
69704;BMP280;56967;43.538;-5.646;2022-12-07T00:33:59;101530.28;;;21.98
69704;BMP280;56967;43.538;-5.646;2022-12-07T00:36:25;101529.63;;;22.26
69704;BMP280;56967;43.538;-5.646;2022-12-07T00:38:51;101522.94;;;22.67
69704;BMP280;56967;43.538;-5.646;2022-12-07T00:41:19;101526.22;;;22.59
69704;BMP280;56967;43.538;-5.646;2022-12-07T00:43:46;101523.16;;;22.32
69704;BMP280;56967;43.538;-5.646;2022-12-07T00:46:12;101518.16;;;22.15
69704;BMP280;56967;43.538;-5.646;2022-12-07T00:48:38;101517.31;;;22.69
69704;BMP280;56967;43.538;-5.646;2022-12-07T00:51:05;101510.06;;;22.25
69704;BMP280;56967;43.538;-5.646;2022-12-07T00:53:31;101510.63;;;22.12
69704;BMP280;56967;43.538;-5.646;2022-12-07T00:56:04;101496.50;;;24.36
69704;BMP280;56967;43.538;-5.646;2022-12-07T00:58:30;101490.59;;;23.97
69704;BMP280;56967;43.538;-5.646;2022-12-07T01:00:59;101494.91;;;22.54
69704;BMP280;56967;43.538;-5.646;2022-12-07T01:03:25;101492.91;;;21.57
69704;BMP280;56967;43.538;-5.646;2022-12-07T01:05:53;101478.94;;;23.35
69704;BMP280;56967;43.538;-5.646;2022-12-07T01:08:19;101478.03;;;21.95
69704;BMP280;56967;43.538;-5.646;2022-12-07T01:10:45;101483.28;;;21.51
69704;BMP280;56967;43.538;-5.646;2022-12-07T01:13:11;101478.13;;;21.75
69704;BMP280;56967;43.538;-5.646;2022-12-07T01:15:43;101474.28;;;23.70
69704;BMP280;56967;43.538;-5.646;2022-12-07T01:18:09;101469.81;;;23.08
69704;BMP280;56967;43.538;-5.646;2022-12-07T01:20:35;101465.09;;;23.23
69704;BMP280;56967;43.538;-5.646;2022-12-07T01:23:01;101463.56;;;22.89
69704;BMP280;56967;43.538;-5.646;2022-12-07T01:25:27;101470.81;;;22.44
69704;BMP280;56967;43.538;-5.646;2022-12-07T01:27:52;101462.84;;;22.39
69704;BMP280;56967;43.538;-5.646;2022-12-07T01:30:18;101463.13;;;24.37
69704;BMP280;56967;43.538;-5.646;2022-12-07T01:32:43;101458.91;;;24.31
69704;BMP280;56967;43.538;-5.646;2022-12-07T01:35:09;101459.75;;;23.94
69704;BMP280;56967;43.538;-5.646;2022-12-07T01:37:36;101454.72;;;22.49
69704;BMP280;56967;43.538;-5.646;2022-12-07T01:40:03;101452.13;;;21.86
69704;BMP280;56967;43.538;-5.646;2022-12-07T01:42:28;101449.75;;;21.69
69704;BMP280;56967;43.538;-5.646;2022-12-07T01:47:53;101458.41;;;22.15
69704;BMP280;56967;43.538;-5.646;2022-12-07T01:50:21;101452.03;;;24.06
69704;BMP280;56967;43.538;-5.646;2022-12-07T01:52:50;101462.53;;;21.97
69704;BMP280;56967;43.538;-5.646;2022-12-07T01:55:18;101463.63;;;21.81
69704;BMP280;56967;43.538;-5.646;2022-12-07T01:57:48;101460.50;;;21.59
69704;BMP280;56967;43.538;-5.646;2022-12-07T02:00:15;101458.94;;;21.33
69704;BMP280;56967;43.538;-5.646;2022-12-07T02:02:54;101462.59;;;21.72
69704;BMP280;56967;43.538;-5.646;2022-12-07T02:05:21;101453.19;;;22.38
69704;BMP280;56967;43.538;-5.646;2022-12-07T02:07:49;101463.22;;;21.29
69704;BMP280;56967;43.538;-5.646;2022-12-07T02:10:17;101455.91;;;20.34
69704;BMP280;56967;43.538;-5.646;2022-12-07T02:12:44;101450.31;;;21.61
69704;BMP280;56967;43.538;-5.646;2022-12-07T02:15:12;101451.41;;;21.40
69704;BMP280;56967;43.538;-5.646;2022-12-07T02:17:50;101450.59;;;21.49
69704;BMP280;56967;43.538;-5.646;2022-12-07T02:23:10;101454.13;;;21.05
69704;BMP280;56967;43.538;-5.646;2022-12-07T02:28:47;101453.31;;;20.64
69704;BMP280;56967;43.538;-5.646;2022-12-07T02:31:19;101460.72;;;20.32
69704;BMP280;56967;43.538;-5.646;2022-12-07T02:33:59;101454.84;;;20.40
69704;BMP280;56967;43.538;-5.646;2022-12-07T02:36:36;101458.81;;;20.27
69704;BMP280;56967;43.538;-5.646;2022-12-07T02:39:16;101455.03;;;21.94
69704;BMP280;56967;43.538;-5.646;2022-12-07T02:41:51;101468.25;;;20.60
69704;BMP280;56967;43.538;-5.646;2022-12-07T02:44:20;101462.16;;;20.69
69704;BMP280;56967;43.538;-5.646;2022-12-07T02:46:52;101464.81;;;20.64
69704;BMP280;56967;43.538;-5.646;2022-12-07T02:49:20;101470.13;;;20.59
69704;BMP280;56967;43.538;-5.646;2022-12-07T02:51:46;101466.16;;;20.87
69704;BMP280;56967;43.538;-5.646;2022-12-07T02:54:15;101465.41;;;21.07
69704;BMP280;56967;43.538;-5.646;2022-12-07T03:05:25;101460.03;;;21.12
69704;BMP280;56967;43.538;-5.646;2022-12-07T03:14:10;101452.81;;;20.92
69704;BMP280;56967;43.538;-5.646;2022-12-07T03:16:16;101448.78;;;21.20
69704;BMP280;56967;43.538;-5.646;2022-12-07T03:18:50;101454.38;;;20.58
69704;BMP280;56967;43.538;-5.646;2022-12-07T03:21:23;101447.63;;;20.40
69704;BMP280;56967;43.538;-5.646;2022-12-07T03:23:54;101443.78;;;20.06
69704;BMP280;56967;43.538;-5.646;2022-12-07T03:26:35;101445.22;;;20.44
69704;BMP280;56967;43.538;-5.646;2022-12-07T03:29:06;101444.25;;;20.80
69704;BMP280;56967;43.538;-5.646;2022-12-07T03:31:36;101446.41;;;20.93
69704;BMP280;56967;43.538;-5.646;2022-12-07T03:34:10;101439.06;;;20.28
69704;BMP280;56967;43.538;-5.646;2022-12-07T03:36:45;101440.78;;;20.79
69704;BMP280;56967;43.538;-5.646;2022-12-07T03:41:38;101435.44;;;20.84
69704;BMP280;56967;43.538;-5.646;2022-12-07T03:44:05;101429.28;;;20.74
69704;BMP280;56967;43.538;-5.646;2022-12-07T03:46:59;101421.78;;;22.05
69704;BMP280;56967;43.538;-5.646;2022-12-07T03:49:43;101424.06;;;21.73
69704;BMP280;56967;43.538;-5.646;2022-12-07T03:54:44;101426.53;;;21.54
69704;BMP280;56967;43.538;-5.646;2022-12-07T03:57:12;101428.72;;;20.62
69704;BMP280;56967;43.538;-5.646;2022-12-07T03:59:38;101422.03;;;21.30
69704;BMP280;56967;43.538;-5.646;2022-12-07T04:02:06;101427.41;;;22.81
69704;BMP280;56967;43.538;-5.646;2022-12-07T04:04:33;101425.81;;;20.83
69704;BMP280;56967;43.538;-5.646;2022-12-07T04:06:59;101432.47;;;20.81
69704;BMP280;56967;43.538;-5.646;2022-12-07T04:09:25;101413.44;;;23.60
69704;BMP280;56967;43.538;-5.646;2022-12-07T04:11:51;101408.19;;;23.50
69704;BMP280;56967;43.538;-5.646;2022-12-07T04:14:17;101414.31;;;24.49
69704;BMP280;56967;43.538;-5.646;2022-12-07T04:16:46;101409.56;;;22.95
69704;BMP280;56967;43.538;-5.646;2022-12-07T04:19:12;101406.03;;;21.15
69704;BMP280;56967;43.538;-5.646;2022-12-07T04:21:39;101408.91;;;21.28
69704;BMP280;56967;43.538;-5.646;2022-12-07T04:24:05;101410.78;;;21.33
69704;BMP280;56967;43.538;-5.646;2022-12-07T04:26:30;101408.94;;;21.13
69704;BMP280;56967;43.538;-5.646;2022-12-07T04:28:56;101416.66;;;20.54
69704;BMP280;56967;43.538;-5.646;2022-12-07T04:31:22;101418.81;;;20.67
69704;BMP280;56967;43.538;-5.646;2022-12-07T04:33:47;101418.53;;;20.49
69704;BMP280;56967;43.538;-5.646;2022-12-07T04:36:13;101408.44;;;20.66
69704;BMP280;56967;43.538;-5.646;2022-12-07T04:38:38;101407.09;;;20.98
69704;BMP280;56967;43.538;-5.646;2022-12-07T04:41:05;101413.22;;;20.59
69704;BMP280;56967;43.538;-5.646;2022-12-07T04:43:31;101408.34;;;19.64
69704;BMP280;56967;43.538;-5.646;2022-12-07T04:45:57;101409.19;;;20.46
69704;BMP280;56967;43.538;-5.646;2022-12-07T04:48:22;101400.09;;;20.32
69704;BMP280;56967;43.538;-5.646;2022-12-07T04:50:49;101399.84;;;20.59
69704;BMP280;56967;43.538;-5.646;2022-12-07T04:53:17;101393.75;;;20.78
69704;BMP280;56967;43.538;-5.646;2022-12-07T04:55:44;101397.69;;;20.36
69704;BMP280;56967;43.538;-5.646;2022-12-07T04:58:10;101401.69;;;20.28
69704;BMP280;56967;43.538;-5.646;2022-12-07T05:00:36;101397.44;;;20.42
69704;BMP280;56967;43.538;-5.646;2022-12-07T05:03:01;101387.72;;;21.62
69704;BMP280;56967;43.538;-5.646;2022-12-07T05:05:27;101395.81;;;20.36
69704;BMP280;56967;43.538;-5.646;2022-12-07T05:07:53;101398.78;;;20.85
69704;BMP280;56967;43.538;-5.646;2022-12-07T05:10:18;101391.69;;;21.59
69704;BMP280;56967;43.538;-5.646;2022-12-07T05:12:44;101393.41;;;21.30
69704;BMP280;56967;43.538;-5.646;2022-12-07T05:15:11;101399.09;;;20.93
69704;BMP280;56967;43.538;-5.646;2022-12-07T05:17:37;101392.13;;;20.97
69704;BMP280;56967;43.538;-5.646;2022-12-07T05:20:04;101396.63;;;21.12
69704;BMP280;56967;43.538;-5.646;2022-12-07T05:22:30;101394.50;;;21.09
69704;BMP280;56967;43.538;-5.646;2022-12-07T05:24:55;101393.44;;;21.20
69704;BMP280;56967;43.538;-5.646;2022-12-07T05:27:21;101396.13;;;20.85
69704;BMP280;56967;43.538;-5.646;2022-12-07T05:29:47;101397.44;;;20.62
69704;BMP280;56967;43.538;-5.646;2022-12-07T05:32:12;101392.91;;;20.58
69704;BMP280;56967;43.538;-5.646;2022-12-07T05:34:38;101394.53;;;20.64
69704;BMP280;56967;43.538;-5.646;2022-12-07T05:37:04;101390.75;;;20.40
69704;BMP280;56967;43.538;-5.646;2022-12-07T05:39:29;101383.28;;;20.67
69704;BMP280;56967;43.538;-5.646;2022-12-07T05:41:55;101387.03;;;20.56
69704;BMP280;56967;43.538;-5.646;2022-12-07T05:44:40;101373.66;;;23.20
69704;BMP280;56967;43.538;-5.646;2022-12-07T05:47:05;101373.25;;;25.16
69704;BMP280;56967;43.538;-5.646;2022-12-07T05:49:31;101371.56;;;22.88
69704;BMP280;56967;43.538;-5.646;2022-12-07T05:51:57;101371.91;;;23.05
69704;BMP280;56967;43.538;-5.646;2022-12-07T05:54:23;101373.09;;;20.18
69704;BMP280;56967;43.538;-5.646;2022-12-07T05:56:49;101380.09;;;20.60
69704;BMP280;56967;43.538;-5.646;2022-12-07T05:59:15;101379.69;;;20.01
69704;BMP280;56967;43.538;-5.646;2022-12-07T06:01:51;101377.53;;;19.88
69704;BMP280;56967;43.538;-5.646;2022-12-07T06:04:18;101373.03;;;20.03
69704;BMP280;56967;43.538;-5.646;2022-12-07T06:06:43;101376.84;;;19.56
69704;BMP280;56967;43.538;-5.646;2022-12-07T06:09:09;101372.06;;;21.05
69704;BMP280;56967;43.538;-5.646;2022-12-07T06:11:35;101367.84;;;21.68
69704;BMP280;56967;43.538;-5.646;2022-12-07T06:14:19;101361.19;;;21.70
69704;BMP280;56967;43.538;-5.646;2022-12-07T06:16:45;101373.41;;;20.77
69704;BMP280;56967;43.538;-5.646;2022-12-07T06:19:11;101370.47;;;19.67
69704;BMP280;56967;43.538;-5.646;2022-12-07T06:21:36;101359.44;;;22.33
69704;BMP280;56967;43.538;-5.646;2022-12-07T06:24:02;101361.44;;;19.68
69704;BMP280;56967;43.538;-5.646;2022-12-07T06:26:28;101362.06;;;20.00
69704;BMP280;56967;43.538;-5.646;2022-12-07T06:28:53;101358.38;;;20.06
69704;BMP280;56967;43.538;-5.646;2022-12-07T06:31:19;101351.47;;;20.20
69704;BMP280;56967;43.538;-5.646;2022-12-07T06:33:44;101350.66;;;20.35
69704;BMP280;56967;43.538;-5.646;2022-12-07T06:36:10;101352.78;;;20.17
69704;BMP280;56967;43.538;-5.646;2022-12-07T06:38:36;101349.75;;;19.84
69704;BMP280;56967;43.538;-5.646;2022-12-07T06:41:02;101347.59;;;22.06
69704;BMP280;56967;43.538;-5.646;2022-12-07T06:43:28;101355.47;;;20.28
69704;BMP280;56967;43.538;-5.646;2022-12-07T06:45:53;101358.09;;;20.07
69704;BMP280;56967;43.538;-5.646;2022-12-07T06:48:19;101362.66;;;20.12
69704;BMP280;56967;43.538;-5.646;2022-12-07T06:50:45;101356.00;;;20.19
69704;BMP280;56967;43.538;-5.646;2022-12-07T06:53:11;101359.47;;;20.30
69704;BMP280;56967;43.538;-5.646;2022-12-07T06:55:37;101360.28;;;20.20
69704;BMP280;56967;43.538;-5.646;2022-12-07T06:58:02;101360.06;;;20.57
69704;BMP280;56967;43.538;-5.646;2022-12-07T07:00:29;101364.28;;;20.33
69704;BMP280;56967;43.538;-5.646;2022-12-07T07:02:54;101358.16;;;20.38
69704;BMP280;56967;43.538;-5.646;2022-12-07T07:05:20;101360.81;;;20.38
69704;BMP280;56967;43.538;-5.646;2022-12-07T07:07:49;101364.47;;;19.96
69704;BMP280;56967;43.538;-5.646;2022-12-07T07:10:14;101368.06;;;20.37
69704;BMP280;56967;43.538;-5.646;2022-12-07T07:12:40;101364.56;;;20.27
69704;BMP280;56967;43.538;-5.646;2022-12-07T07:15:06;101359.97;;;19.03
69704;BMP280;56967;43.538;-5.646;2022-12-07T07:17:32;101361.19;;;19.74
69704;BMP280;56967;43.538;-5.646;2022-12-07T07:19:58;101362.47;;;20.74
69704;BMP280;56967;43.538;-5.646;2022-12-07T07:22:23;101370.84;;;19.85
69704;BMP280;56967;43.538;-5.646;2022-12-07T07:24:49;101377.72;;;19.76
69704;BMP280;56967;43.538;-5.646;2022-12-07T07:27:14;101373.81;;;19.37
69704;BMP280;56967;43.538;-5.646;2022-12-07T07:29:40;101368.56;;;19.57
69704;BMP280;56967;43.538;-5.646;2022-12-07T07:32:05;101382.47;;;20.46
69704;BMP280;56967;43.538;-5.646;2022-12-07T07:34:33;101381.84;;;20.04
69704;BMP280;56967;43.538;-5.646;2022-12-07T07:36:59;101381.59;;;21.46
69704;BMP280;56967;43.538;-5.646;2022-12-07T07:39:24;101387.81;;;20.41
69704;BMP280;56967;43.538;-5.646;2022-12-07T07:41:50;101380.03;;;20.35
69704;BMP280;56967;43.538;-5.646;2022-12-07T07:44:15;101379.75;;;20.21
69704;BMP280;56967;43.538;-5.646;2022-12-07T07:46:41;101383.81;;;20.29
69704;BMP280;56967;43.538;-5.646;2022-12-07T07:49:06;101384.06;;;21.23
69704;BMP280;56967;43.538;-5.646;2022-12-07T07:51:32;101387.72;;;21.62
69704;BMP280;56967;43.538;-5.646;2022-12-07T07:53:57;101393.31;;;19.06
69704;BMP280;56967;43.538;-5.646;2022-12-07T07:56:23;101394.44;;;18.83
69704;BMP280;56967;43.538;-5.646;2022-12-07T07:58:52;101398.13;;;18.50
69704;BMP280;56967;43.538;-5.646;2022-12-07T08:01:17;101402.28;;;19.00
69704;BMP280;56967;43.538;-5.646;2022-12-07T08:03:46;101401.53;;;19.88
69704;BMP280;56967;43.538;-5.646;2022-12-07T08:06:11;101403.56;;;20.28
69704;BMP280;56967;43.538;-5.646;2022-12-07T08:08:37;101393.59;;;20.08
69704;BMP280;56967;43.538;-5.646;2022-12-07T08:11:07;101405.78;;;19.84
69704;BMP280;56967;43.538;-5.646;2022-12-07T08:13:32;101394.09;;;19.38
69704;BMP280;56967;43.538;-5.646;2022-12-07T08:15:58;101401.38;;;19.58
69704;BMP280;56967;43.538;-5.646;2022-12-07T08:18:28;101406.03;;;20.69
69704;BMP280;56967;43.538;-5.646;2022-12-07T08:20:59;101391.94;;;21.68
69704;BMP280;56967;43.538;-5.646;2022-12-07T08:23:25;101399.84;;;22.42
69704;BMP280;56967;43.538;-5.646;2022-12-07T08:25:50;101401.63;;;21.54
69704;BMP280;56967;43.538;-5.646;2022-12-07T08:28:16;101399.53;;;22.05
69704;BMP280;56967;43.538;-5.646;2022-12-07T08:30:41;101407.34;;;20.87
69704;BMP280;56967;43.538;-5.646;2022-12-07T08:33:09;101405.75;;;20.56
69704;BMP280;56967;43.538;-5.646;2022-12-07T08:35:35;101395.44;;;21.63
69704;BMP280;56967;43.538;-5.646;2022-12-07T08:38:01;101401.75;;;20.98
69704;BMP280;56967;43.538;-5.646;2022-12-07T08:40:27;101405.75;;;20.96
69704;BMP280;56967;43.538;-5.646;2022-12-07T08:42:53;101408.13;;;20.67
69704;BMP280;56967;43.538;-5.646;2022-12-07T08:45:20;101403.81;;;20.31
69704;BMP280;56967;43.538;-5.646;2022-12-07T08:47:50;101401.97;;;20.47
69704;BMP280;56967;43.538;-5.646;2022-12-07T08:50:17;101397.72;;;20.46
69704;BMP280;56967;43.538;-5.646;2022-12-07T08:52:43;101401.75;;;20.68
69704;BMP280;56967;43.538;-5.646;2022-12-07T08:55:10;101405.19;;;20.59
69704;BMP280;56967;43.538;-5.646;2022-12-07T08:57:36;101395.84;;;20.71
69704;BMP280;56967;43.538;-5.646;2022-12-07T09:00:04;101397.44;;;20.37
69704;BMP280;56967;43.538;-5.646;2022-12-07T09:02:31;101391.59;;;20.60
69704;BMP280;56967;43.538;-5.646;2022-12-07T09:04:56;101386.00;;;19.80
69704;BMP280;56967;43.538;-5.646;2022-12-07T09:07:22;101387.91;;;19.84
69704;BMP280;56967;43.538;-5.646;2022-12-07T09:09:48;101389.94;;;20.34
69704;BMP280;56967;43.538;-5.646;2022-12-07T09:12:14;101397.94;;;20.39
69704;BMP280;56967;43.538;-5.646;2022-12-07T09:14:39;101393.44;;;21.10
69704;BMP280;56967;43.538;-5.646;2022-12-07T09:17:06;101389.94;;;21.30
69704;BMP280;56967;43.538;-5.646;2022-12-07T09:19:32;101399.72;;;21.74
69704;BMP280;56967;43.538;-5.646;2022-12-07T09:21:58;101392.03;;;21.53
69704;BMP280;56967;43.538;-5.646;2022-12-07T09:24:23;101398.41;;;21.62
69704;BMP280;56967;43.538;-5.646;2022-12-07T09:26:49;101402.25;;;21.21
69704;BMP280;56967;43.538;-5.646;2022-12-07T09:29:14;101403.19;;;21.70
69704;BMP280;56967;43.538;-5.646;2022-12-07T09:31:40;101400.53;;;21.70
69704;BMP280;56967;43.538;-5.646;2022-12-07T09:34:06;101407.66;;;21.90
69704;BMP280;56967;43.538;-5.646;2022-12-07T09:36:32;101415.78;;;21.69
69704;BMP280;56967;43.538;-5.646;2022-12-07T09:38:58;101418.19;;;22.25
69704;BMP280;56967;43.538;-5.646;2022-12-07T09:41:25;101411.88;;;22.06
69704;BMP280;56967;43.538;-5.646;2022-12-07T09:43:52;101399.19;;;22.21
69704;BMP280;56967;43.538;-5.646;2022-12-07T09:46:21;101401.06;;;22.21
69704;BMP280;56967;43.538;-5.646;2022-12-07T09:48:48;101403.25;;;22.52
69704;BMP280;56967;43.538;-5.646;2022-12-07T09:51:21;101399.81;;;22.47
69704;BMP280;56967;43.538;-5.646;2022-12-07T09:53:48;101407.41;;;22.97
69704;BMP280;56967;43.538;-5.646;2022-12-07T09:56:15;101400.88;;;22.80
69704;BMP280;56967;43.538;-5.646;2022-12-07T09:58:41;101398.13;;;22.17
69704;BMP280;56967;43.538;-5.646;2022-12-07T10:03:34;101396.19;;;22.67
69704;BMP280;56967;43.538;-5.646;2022-12-07T10:06:01;101404.06;;;23.10
69704;BMP280;56967;43.538;-5.646;2022-12-07T10:08:27;101404.47;;;23.46
69704;BMP280;56967;43.538;-5.646;2022-12-07T10:10:56;101403.09;;;23.49
69704;BMP280;56967;43.538;-5.646;2022-12-07T10:13:36;101406.72;;;24.00
69704;BMP280;56967;43.538;-5.646;2022-12-07T10:16:03;101413.00;;;24.46
69704;BMP280;56967;43.538;-5.646;2022-12-07T10:18:39;101409.44;;;25.10
69704;BMP280;56967;43.538;-5.646;2022-12-07T10:21:38;101413.81;;;25.19
69704;BMP280;56967;43.538;-5.646;2022-12-07T10:26:39;101399.31;;;24.61
69704;BMP280;56967;43.538;-5.646;2022-12-07T10:31:40;101395.56;;;24.76
69704;BMP280;56967;43.538;-5.646;2022-12-07T10:34:32;101394.38;;;24.82
69704;BMP280;56967;43.538;-5.646;2022-12-07T10:39:45;101389.03;;;24.63
69704;BMP280;56967;43.538;-5.646;2022-12-07T10:42:31;101375.38;;;26.65
69704;BMP280;56967;43.538;-5.646;2022-12-07T10:47:52;101384.44;;;26.69
69704;BMP280;56967;43.538;-5.646;2022-12-07T10:53:30;101363.44;;;26.58
69704;BMP280;56967;43.538;-5.646;2022-12-07T10:59:01;101345.78;;;28.57
69704;BMP280;56967;43.538;-5.646;2022-12-07T11:01:35;101342.69;;;27.66
69704;BMP280;56967;43.538;-5.646;2022-12-07T11:09:57;101333.13;;;27.94
69704;BMP280;56967;43.538;-5.646;2022-12-07T11:12:47;101335.47;;;28.13
69704;BMP280;56967;43.538;-5.646;2022-12-07T11:15:26;101315.63;;;28.67
69704;BMP280;56967;43.538;-5.646;2022-12-07T11:18:09;101318.69;;;27.73
69704;BMP280;56967;43.538;-5.646;2022-12-07T11:37:09;101287.88;;;27.31
69704;BMP280;56967;43.538;-5.646;2022-12-07T11:39:51;101282.28;;;28.17
69704;BMP280;56967;43.538;-5.646;2022-12-07T11:42:24;101272.84;;;27.93
69704;BMP280;56967;43.538;-5.646;2022-12-07T11:45:22;101267.06;;;28.91
69704;BMP280;56967;43.538;-5.646;2022-12-07T11:47:55;101261.31;;;27.50
69704;BMP280;56967;43.538;-5.646;2022-12-07T11:50:36;101259.75;;;26.98
69704;BMP280;56967;43.538;-5.646;2022-12-07T11:53:14;101262.91;;;26.91
69704;BMP280;56967;43.538;-5.646;2022-12-07T12:03:50;101246.53;;;27.56
69704;BMP280;56967;43.538;-5.646;2022-12-07T12:06:16;101250.00;;;27.65
69704;BMP280;56967;43.538;-5.646;2022-12-07T12:14:29;101246.91;;;26.95
69704;BMP280;56967;43.538;-5.646;2022-12-07T12:19:36;101241.81;;;25.32
69704;BMP280;56967;43.538;-5.646;2022-12-07T12:22:17;101226.19;;;26.65
69704;BMP280;56967;43.538;-5.646;2022-12-07T12:24:46;101225.09;;;26.74
69704;BMP280;56967;43.538;-5.646;2022-12-07T12:27:34;101222.97;;;26.46
69704;BMP280;56967;43.538;-5.646;2022-12-07T12:30:04;101220.63;;;26.53
69704;BMP280;56967;43.538;-5.646;2022-12-07T12:32:41;101233.03;;;24.22
69704;BMP280;56967;43.538;-5.646;2022-12-07T12:35:29;101213.34;;;24.68
69704;BMP280;56967;43.538;-5.646;2022-12-07T12:40:44;101200.72;;;25.17
69704;BMP280;56967;43.538;-5.646;2022-12-07T12:51:44;101197.19;;;24.81
69704;BMP280;56967;43.538;-5.646;2022-12-07T12:57:07;101191.44;;;25.76
69704;BMP280;56967;43.538;-5.646;2022-12-07T12:59:36;101189.41;;;26.12
69704;BMP280;56967;43.538;-5.646;2022-12-07T13:04:58;101182.16;;;25.60
69704;BMP280;56967;43.538;-5.646;2022-12-07T13:07:50;101201.56;;;25.71
69704;BMP280;56967;43.538;-5.646;2022-12-07T13:28:40;101142.69;;;24.54
69704;BMP280;56967;43.538;-5.646;2022-12-07T13:31:30;101130.91;;;23.50
69704;BMP280;56967;43.538;-5.646;2022-12-07T13:33:57;101135.66;;;22.83
69704;BMP280;56967;43.538;-5.646;2022-12-07T13:36:25;101134.13;;;24.24
69704;BMP280;56967;43.538;-5.646;2022-12-07T13:38:59;101124.72;;;23.95
69704;BMP280;56967;43.538;-5.646;2022-12-07T13:41:27;101129.50;;;25.01
69704;BMP280;56967;43.538;-5.646;2022-12-07T13:44:02;101128.28;;;23.44
69704;BMP280;56967;43.538;-5.646;2022-12-07T13:46:44;101138.97;;;21.75
69704;BMP280;56967;43.538;-5.646;2022-12-07T13:49:28;101124.66;;;22.66
69704;BMP280;56967;43.538;-5.646;2022-12-07T13:51:56;101130.69;;;23.92
69704;BMP280;56967;43.538;-5.646;2022-12-07T13:54:32;101125.22;;;23.19
69704;BMP280;56967;43.538;-5.646;2022-12-07T13:56:58;101112.88;;;24.50
69704;BMP280;56967;43.538;-5.646;2022-12-07T13:59:25;101118.94;;;22.02
69704;BMP280;56967;43.538;-5.646;2022-12-07T14:01:55;101095.03;;;23.27
69704;BMP280;56967;43.538;-5.646;2022-12-07T14:04:34;101103.19;;;23.54
69704;BMP280;56967;43.538;-5.646;2022-12-07T14:07:17;101086.97;;;23.59
69704;BMP280;56967;43.538;-5.646;2022-12-07T14:09:57;101082.38;;;24.90
69704;BMP280;56967;43.538;-5.646;2022-12-07T14:12:24;101092.94;;;24.15
69704;BMP280;56967;43.538;-5.646;2022-12-07T14:14:51;101084.38;;;22.29
69704;BMP280;56967;43.538;-5.646;2022-12-07T14:17:25;101088.91;;;23.72
69704;BMP280;56967;43.538;-5.646;2022-12-07T14:19:56;101082.47;;;24.63
69704;BMP280;56967;43.538;-5.646;2022-12-07T14:24:51;101070.09;;;22.76
69704;BMP280;56967;43.538;-5.646;2022-12-07T14:27:24;101073.53;;;22.39
69704;BMP280;56967;43.538;-5.646;2022-12-07T14:29:55;101075.44;;;22.57
69704;BMP280;56967;43.538;-5.646;2022-12-07T14:32:24;101072.91;;;23.03
69704;BMP280;56967;43.538;-5.646;2022-12-07T14:37:24;101053.69;;;23.74
69704;BMP280;56967;43.538;-5.646;2022-12-07T14:39:50;101057.63;;;22.00
69704;BMP280;56967;43.538;-5.646;2022-12-07T14:42:15;101054.69;;;23.78
69704;BMP280;56967;43.538;-5.646;2022-12-07T14:44:42;101054.66;;;23.51
69704;BMP280;56967;43.538;-5.646;2022-12-07T14:47:10;101058.69;;;23.02
69704;BMP280;56967;43.538;-5.646;2022-12-07T14:49:36;101066.66;;;23.26
69704;BMP280;56967;43.538;-5.646;2022-12-07T14:52:01;101087.38;;;23.20
69704;BMP280;56967;43.538;-5.646;2022-12-07T14:54:31;101045.19;;;24.48
69704;BMP280;56967;43.538;-5.646;2022-12-07T14:56:57;101037.00;;;25.19
69704;BMP280;56967;43.538;-5.646;2022-12-07T14:59:23;101043.94;;;23.51
69704;BMP280;56967;43.538;-5.646;2022-12-07T15:01:49;101055.81;;;23.90
69704;BMP280;56967;43.538;-5.646;2022-12-07T15:04:14;101047.34;;;21.84
69704;BMP280;56967;43.538;-5.646;2022-12-07T15:06:40;101048.72;;;21.81
69704;BMP280;56967;43.538;-5.646;2022-12-07T15:09:10;101061.75;;;22.16
69704;BMP280;56967;43.538;-5.646;2022-12-07T15:11:36;101076.22;;;22.39
69704;BMP280;56967;43.538;-5.646;2022-12-07T15:14:02;101074.50;;;23.04
69704;BMP280;56967;43.538;-5.646;2022-12-07T15:16:35;101061.22;;;22.56
69704;BMP280;56967;43.538;-5.646;2022-12-07T15:19:01;101075.34;;;23.50
69704;BMP280;56967;43.538;-5.646;2022-12-07T15:21:27;101071.94;;;23.44
69704;BMP280;56967;43.538;-5.646;2022-12-07T15:23:53;101076.44;;;22.61
69704;BMP280;56967;43.538;-5.646;2022-12-07T15:26:19;101060.09;;;22.44
69704;BMP280;56967;43.538;-5.646;2022-12-07T15:28:44;101064.84;;;22.00
69704;BMP280;56967;43.538;-5.646;2022-12-07T15:31:17;101058.47;;;24.04
69704;BMP280;56967;43.538;-5.646;2022-12-07T15:33:43;101064.16;;;24.02
69704;BMP280;56967;43.538;-5.646;2022-12-07T15:36:19;101048.38;;;23.09
69704;BMP280;56967;43.538;-5.646;2022-12-07T15:38:45;101072.06;;;21.99
69704;BMP280;56967;43.538;-5.646;2022-12-07T15:41:11;101059.59;;;24.03
69704;BMP280;56967;43.538;-5.646;2022-12-07T15:43:36;101058.03;;;23.10
69704;BMP280;56967;43.538;-5.646;2022-12-07T15:46:20;101065.97;;;22.41
69704;BMP280;56967;43.538;-5.646;2022-12-07T15:48:46;101081.38;;;22.73
69704;BMP280;56967;43.538;-5.646;2022-12-07T15:51:12;101071.16;;;22.93
69704;BMP280;56967;43.538;-5.646;2022-12-07T15:53:37;101062.22;;;23.49
69704;BMP280;56967;43.538;-5.646;2022-12-07T15:56:07;101065.72;;;22.61
69704;BMP280;56967;43.538;-5.646;2022-12-07T15:58:33;101058.03;;;22.12
69704;BMP280;56967;43.538;-5.646;2022-12-07T16:00:59;101073.28;;;23.74